sensor_id;sensor_type;location;lat;lon;timestamp;temperature;humidity
21184;DHT22;18176;49.502;11.754;2022-08-03T00:03:54;18.30;99.90
21184;DHT22;18176;49.502;11.754;2022-08-03T00:07:51;18.20;99.90
21184;DHT22;18176;49.502;11.754;2022-08-03T00:11:48;18.20;99.90
21184;DHT22;18176;49.502;11.754;2022-08-03T00:15:46;18.10;99.90
21184;DHT22;18176;49.502;11.754;2022-08-03T00:19:43;18.10;99.90
21184;DHT22;18176;49.502;11.754;2022-08-03T00:23:40;18.10;99.90
21184;DHT22;18176;49.502;11.754;2022-08-03T00:27:48;18.00;99.90
21184;DHT22;18176;49.502;11.754;2022-08-03T00:31:46;18.00;99.90
21184;DHT22;18176;49.502;11.754;2022-08-03T00:35:50;17.90;99.90
21184;DHT22;18176;49.502;11.754;2022-08-03T00:39:48;17.90;99.90
21184;DHT22;18176;49.502;11.754;2022-08-03T00:43:45;17.80;99.90
21184;DHT22;18176;49.502;11.754;2022-08-03T00:47:43;17.70;99.90
21184;DHT22;18176;49.502;11.754;2022-08-03T00:51:41;17.60;99.90
21184;DHT22;18176;49.502;11.754;2022-08-03T00:55:40;17.60;99.90
21184;DHT22;18176;49.502;11.754;2022-08-03T00:59:37;17.50;99.90
21184;DHT22;18176;49.502;11.754;2022-08-03T01:03:35;17.50;99.90
21184;DHT22;18176;49.502;11.754;2022-08-03T01:12:47;17.40;99.90
21184;DHT22;18176;49.502;11.754;2022-08-03T01:17:56;17.40;99.90
21184;DHT22;18176;49.502;11.754;2022-08-03T01:26:35;17.30;99.90
21184;DHT22;18176;49.502;11.754;2022-08-03T01:30:44;17.20;99.90
21184;DHT22;18176;49.502;11.754;2022-08-03T01:34:46;17.10;99.90
21184;DHT22;18176;49.502;11.754;2022-08-03T01:39:02;17.00;99.90
21184;DHT22;18176;49.502;11.754;2022-08-03T01:43:05;17.00;99.90
21184;DHT22;18176;49.502;11.754;2022-08-03T01:47:05;16.90;99.90
21184;DHT22;18176;49.502;11.754;2022-08-03T01:51:05;16.90;99.90
21184;DHT22;18176;49.502;11.754;2022-08-03T01:55:05;16.90;99.90
21184;DHT22;18176;49.502;11.754;2022-08-03T01:59:04;16.80;99.90
21184;DHT22;18176;49.502;11.754;2022-08-03T02:03:04;16.80;99.90
21184;DHT22;18176;49.502;11.754;2022-08-03T02:07:02;16.70;99.90
21184;DHT22;18176;49.502;11.754;2022-08-03T02:11:01;16.70;99.90
21184;DHT22;18176;49.502;11.754;2022-08-03T02:15:00;16.60;99.90
21184;DHT22;18176;49.502;11.754;2022-08-03T02:19:02;16.50;99.90
21184;DHT22;18176;49.502;11.754;2022-08-03T02:23:02;16.40;99.90
21184;DHT22;18176;49.502;11.754;2022-08-03T02:27:00;16.40;99.90
21184;DHT22;18176;49.502;11.754;2022-08-03T02:31:04;16.40;99.90
21184;DHT22;18176;49.502;11.754;2022-08-03T02:35:11;16.40;99.90
21184;DHT22;18176;49.502;11.754;2022-08-03T02:39:12;16.30;99.90
21184;DHT22;18176;49.502;11.754;2022-08-03T02:43:17;16.30;99.90
21184;DHT22;18176;49.502;11.754;2022-08-03T02:47:18;16.20;99.90
21184;DHT22;18176;49.502;11.754;2022-08-03T02:51:18;16.20;99.90
21184;DHT22;18176;49.502;11.754;2022-08-03T02:55:17;16.20;99.90
21184;DHT22;18176;49.502;11.754;2022-08-03T02:59:17;16.20;99.90
21184;DHT22;18176;49.502;11.754;2022-08-03T03:03:15;16.10;99.90
21184;DHT22;18176;49.502;11.754;2022-08-03T03:07:16;16.00;99.90
21184;DHT22;18176;49.502;11.754;2022-08-03T03:11:16;16.00;99.90
21184;DHT22;18176;49.502;11.754;2022-08-03T03:15:15;15.90;99.90
21184;DHT22;18176;49.502;11.754;2022-08-03T03:19:13;16.00;99.90
21184;DHT22;18176;49.502;11.754;2022-08-03T03:23:13;15.90;99.90
21184;DHT22;18176;49.502;11.754;2022-08-03T03:27:13;15.80;99.90
21184;DHT22;18176;49.502;11.754;2022-08-03T03:31:12;15.70;99.90
21184;DHT22;18176;49.502;11.754;2022-08-03T03:35:10;15.70;99.90
21184;DHT22;18176;49.502;11.754;2022-08-03T03:39:09;15.60;99.90
21184;DHT22;18176;49.502;11.754;2022-08-03T03:43:12;15.60;99.90
21184;DHT22;18176;49.502;11.754;2022-08-03T03:47:09;15.60;99.90
21184;DHT22;18176;49.502;11.754;2022-08-03T03:51:08;15.50;99.90
21184;DHT22;18176;49.502;11.754;2022-08-03T03:55:06;15.50;99.90
21184;DHT22;18176;49.502;11.754;2022-08-03T03:59:06;15.50;99.90
21184;DHT22;18176;49.502;11.754;2022-08-03T04:03:03;15.50;99.90
21184;DHT22;18176;49.502;11.754;2022-08-03T04:07:01;15.50;99.90
21184;DHT22;18176;49.502;11.754;2022-08-03T04:11:23;15.40;99.90
21184;DHT22;18176;49.502;11.754;2022-08-03T04:15:27;15.50;99.90
21184;DHT22;18176;49.502;11.754;2022-08-03T04:19:28;15.50;99.90
21184;DHT22;18176;49.502;11.754;2022-08-03T04:23:32;15.50;99.90
21184;DHT22;18176;49.502;11.754;2022-08-03T04:27:36;15.50;99.90
21184;DHT22;18176;49.502;11.754;2022-08-03T04:31:37;15.50;99.90
21184;DHT22;18176;49.502;11.754;2022-08-03T04:35:35;15.50;99.90
21184;DHT22;18176;49.502;11.754;2022-08-03T04:39:53;15.50;99.90
21184;DHT22;18176;49.502;11.754;2022-08-03T04:43:56;15.70;99.90
21184;DHT22;18176;49.502;11.754;2022-08-03T04:47:55;15.70;99.90
21184;DHT22;18176;49.502;11.754;2022-08-03T04:51:53;15.70;99.90
21184;DHT22;18176;49.502;11.754;2022-08-03T04:55:50;15.80;99.90
21184;DHT22;18176;49.502;11.754;2022-08-03T04:59:47;15.90;99.90
21184;DHT22;18176;49.502;11.754;2022-08-03T05:03:53;15.90;99.90
21184;DHT22;18176;49.502;11.754;2022-08-03T05:07:50;16.00;99.90
21184;DHT22;18176;49.502;11.754;2022-08-03T05:11:48;16.00;99.90
21184;DHT22;18176;49.502;11.754;2022-08-03T05:15:45;16.10;99.90
21184;DHT22;18176;49.502;11.754;2022-08-03T05:19:42;16.20;99.90
21184;DHT22;18176;49.502;11.754;2022-08-03T05:23:40;16.30;99.90
21184;DHT22;18176;49.502;11.754;2022-08-03T05:27:37;16.50;99.90
21184;DHT22;18176;49.502;11.754;2022-08-03T05:31:34;16.60;99.90
21184;DHT22;18176;49.502;11.754;2022-08-03T05:35:31;16.80;99.90
21184;DHT22;18176;49.502;11.754;2022-08-03T05:39:50;17.00;99.90
21184;DHT22;18176;49.502;11.754;2022-08-03T05:43:47;17.20;99.90
21184;DHT22;18176;49.502;11.754;2022-08-03T05:47:45;17.30;99.90
21184;DHT22;18176;49.502;11.754;2022-08-03T05:51:42;17.50;99.90
21184;DHT22;18176;49.502;11.754;2022-08-03T05:55:39;17.60;99.90
21184;DHT22;18176;49.502;11.754;2022-08-03T05:59:37;17.80;99.90
21184;DHT22;18176;49.502;11.754;2022-08-03T06:03:50;17.90;99.90
21184;DHT22;18176;49.502;11.754;2022-08-03T06:07:47;18.10;99.90
21184;DHT22;18176;49.502;11.754;2022-08-03T06:11:45;18.20;99.90
21184;DHT22;18176;49.502;11.754;2022-08-03T06:15:42;18.40;99.90
21184;DHT22;18176;49.502;11.754;2022-08-03T06:19:39;18.60;99.90
21184;DHT22;18176;49.502;11.754;2022-08-03T06:23:36;18.80;99.90
21184;DHT22;18176;49.502;11.754;2022-08-03T06:27:50;19.00;99.90
21184;DHT22;18176;49.502;11.754;2022-08-03T06:31:47;19.20;99.90
21184;DHT22;18176;49.502;11.754;2022-08-03T06:35:44;19.40;99.90
21184;DHT22;18176;49.502;11.754;2022-08-03T06:39:42;19.60;99.90
21184;DHT22;18176;49.502;11.754;2022-08-03T06:43:42;19.80;99.90
21184;DHT22;18176;49.502;11.754;2022-08-03T06:48:10;20.10;99.90
21184;DHT22;18176;49.502;11.754;2022-08-03T06:52:08;20.30;99.90
21184;DHT22;18176;49.502;11.754;2022-08-03T06:56:06;20.50;99.90
21184;DHT22;18176;49.502;11.754;2022-08-03T07:00:04;20.70;99.90
21184;DHT22;18176;49.502;11.754;2022-08-03T07:04:08;20.90;99.90
21184;DHT22;18176;49.502;11.754;2022-08-03T07:08:05;21.10;99.90
21184;DHT22;18176;49.502;11.754;2022-08-03T07:12:03;21.20;99.90
21184;DHT22;18176;49.502;11.754;2022-08-03T07:16:02;21.40;99.90
21184;DHT22;18176;49.502;11.754;2022-08-03T07:20:00;21.60;99.90
21184;DHT22;18176;49.502;11.754;2022-08-03T07:23:59;21.80;99.90
21184;DHT22;18176;49.502;11.754;2022-08-03T07:27:56;21.90;99.90
21184;DHT22;18176;49.502;11.754;2022-08-03T07:31:53;22.10;99.90
21184;DHT22;18176;49.502;11.754;2022-08-03T07:35:50;22.30;99.90
21184;DHT22;18176;49.502;11.754;2022-08-03T07:39:47;22.40;99.90
21184;DHT22;18176;49.502;11.754;2022-08-03T07:43:44;22.60;99.90
21184;DHT22;18176;49.502;11.754;2022-08-03T07:47:44;22.70;99.90
21184;DHT22;18176;49.502;11.754;2022-08-03T07:51:49;22.90;99.90
21184;DHT22;18176;49.502;11.754;2022-08-03T07:56:06;23.10;99.90
21184;DHT22;18176;49.502;11.754;2022-08-03T08:00:16;23.50;99.90
21184;DHT22;18176;49.502;11.754;2022-08-03T08:04:14;23.70;99.90
21184;DHT22;18176;49.502;11.754;2022-08-03T08:08:12;24.10;99.90
21184;DHT22;18176;49.502;11.754;2022-08-03T08:12:09;24.50;99.90
21184;DHT22;18176;49.502;11.754;2022-08-03T08:16:11;25.30;99.90
21184;DHT22;18176;49.502;11.754;2022-08-03T08:20:10;26.20;99.90
21184;DHT22;18176;49.502;11.754;2022-08-03T08:24:19;27.00;99.90
21184;DHT22;18176;49.502;11.754;2022-08-03T08:28:17;27.80;99.90
21184;DHT22;18176;49.502;11.754;2022-08-03T08:32:27;28.40;99.90
21184;DHT22;18176;49.502;11.754;2022-08-03T08:36:24;29.00;99.90
21184;DHT22;18176;49.502;11.754;2022-08-03T08:40:22;29.80;99.90
21184;DHT22;18176;49.502;11.754;2022-08-03T08:44:19;29.80;99.90
21184;DHT22;18176;49.502;11.754;2022-08-03T08:48:22;30.30;99.90
21184;DHT22;18176;49.502;11.754;2022-08-03T08:52:25;30.80;99.90
21184;DHT22;18176;49.502;11.754;2022-08-03T08:56:27;31.40;97.00
21184;DHT22;18176;49.502;11.754;2022-08-03T09:00:28;32.10;95.50
21184;DHT22;18176;49.502;11.754;2022-08-03T09:04:29;32.40;92.50
21184;DHT22;18176;49.502;11.754;2022-08-03T09:08:28;32.70;90.20
21184;DHT22;18176;49.502;11.754;2022-08-03T09:12:26;32.20;85.90
21184;DHT22;18176;49.502;11.754;2022-08-03T09:16:38;31.80;87.70
21184;DHT22;18176;49.502;11.754;2022-08-03T09:20:54;32.70;85.20
21184;DHT22;18176;49.502;11.754;2022-08-03T09:25:40;33.50;77.00
21184;DHT22;18176;49.502;11.754;2022-08-03T09:29:38;33.50;74.50
21184;DHT22;18176;49.502;11.754;2022-08-03T09:33:46;33.20;70.20
21184;DHT22;18176;49.502;11.754;2022-08-03T09:37:44;33.90;69.10
21184;DHT22;18176;49.502;11.754;2022-08-03T09:42:07;34.00;67.20
21184;DHT22;18176;49.502;11.754;2022-08-03T09:46:05;34.70;66.00
21184;DHT22;18176;49.502;11.754;2022-08-03T09:50:05;34.80;61.90
21184;DHT22;18176;49.502;11.754;2022-08-03T09:54:04;34.10;60.50
21184;DHT22;18176;49.502;11.754;2022-08-03T09:58:11;33.10;64.10
21184;DHT22;18176;49.502;11.754;2022-08-03T10:02:20;33.40;62.50
21184;DHT22;18176;49.502;11.754;2022-08-03T10:06:19;34.40;60.60
21184;DHT22;18176;49.502;11.754;2022-08-03T10:10:24;34.50;59.70
21184;DHT22;18176;49.502;11.754;2022-08-03T10:14:27;35.00;58.70
21184;DHT22;18176;49.502;11.754;2022-08-03T10:18:27;35.00;57.80
21184;DHT22;18176;49.502;11.754;2022-08-03T10:22:31;35.20;56.60
21184;DHT22;18176;49.502;11.754;2022-08-03T10:26:32;34.80;56.20
21184;DHT22;18176;49.502;11.754;2022-08-03T10:30:32;34.10;58.30
21184;DHT22;18176;49.502;11.754;2022-08-03T10:34:33;34.90;57.40
21184;DHT22;18176;49.502;11.754;2022-08-03T10:38:47;34.40;55.40
21184;DHT22;18176;49.502;11.754;2022-08-03T10:42:55;34.50;55.80
21184;DHT22;18176;49.502;11.754;2022-08-03T10:46:55;35.50;54.00
21184;DHT22;18176;49.502;11.754;2022-08-03T10:50:53;35.80;53.40
21184;DHT22;18176;49.502;11.754;2022-08-03T10:54:51;36.20;53.60
21184;DHT22;18176;49.502;11.754;2022-08-03T10:59:06;36.30;53.00
21184;DHT22;18176;49.502;11.754;2022-08-03T11:03:12;35.90;52.30
21184;DHT22;18176;49.502;11.754;2022-08-03T11:15:31;38.30;50.30
21184;DHT22;18176;49.502;11.754;2022-08-03T11:19:43;38.20;49.60
21184;DHT22;18176;49.502;11.754;2022-08-03T11:23:53;38.90;49.00
21184;DHT22;18176;49.502;11.754;2022-08-03T11:28:24;39.90;47.30
21184;DHT22;18176;49.502;11.754;2022-08-03T11:41:35;37.30;47.80
21184;DHT22;18176;49.502;11.754;2022-08-03T11:49:57;37.40;47.80
21184;DHT22;18176;49.502;11.754;2022-08-03T11:54:01;37.70;47.30
21184;DHT22;18176;49.502;11.754;2022-08-03T11:57:59;38.20;46.00
21184;DHT22;18176;49.502;11.754;2022-08-03T12:02:16;38.60;45.50
21184;DHT22;18176;49.502;11.754;2022-08-03T12:06:15;38.30;45.80
21184;DHT22;18176;49.502;11.754;2022-08-03T12:10:13;38.40;43.70
21184;DHT22;18176;49.502;11.754;2022-08-03T12:14:15;39.10;44.50
21184;DHT22;18176;49.502;11.754;2022-08-03T12:18:33;39.70;44.90
21184;DHT22;18176;49.502;11.754;2022-08-03T12:22:38;39.50;42.30
21184;DHT22;18176;49.502;11.754;2022-08-03T12:26:47;38.30;43.80
21184;DHT22;18176;49.502;11.754;2022-08-03T12:30:59;39.10;42.90
21184;DHT22;18176;49.502;11.754;2022-08-03T12:34:58;40.30;41.90
21184;DHT22;18176;49.502;11.754;2022-08-03T12:39:03;40.50;40.80
21184;DHT22;18176;49.502;11.754;2022-08-03T12:43:10;39.40;40.90
21184;DHT22;18176;49.502;11.754;2022-08-03T12:47:08;39.30;41.10
21184;DHT22;18176;49.502;11.754;2022-08-03T12:51:11;40.60;39.90
21184;DHT22;18176;49.502;11.754;2022-08-03T12:55:18;39.20;40.60
21184;DHT22;18176;49.502;11.754;2022-08-03T12:59:23;37.50;43.00
21184;DHT22;18176;49.502;11.754;2022-08-03T13:03:40;36.00;46.00
21184;DHT22;18176;49.502;11.754;2022-08-03T13:07:48;36.00;46.10
21184;DHT22;18176;49.502;11.754;2022-08-03T13:11:45;38.10;45.50
21184;DHT22;18176;49.502;11.754;2022-08-03T13:15:57;39.80;42.50
21184;DHT22;18176;49.502;11.754;2022-08-03T13:19:55;41.20;41.60
21184;DHT22;18176;49.502;11.754;2022-08-03T13:23:52;41.30;39.10
21184;DHT22;18176;49.502;11.754;2022-08-03T13:27:50;41.00;39.00
21184;DHT22;18176;49.502;11.754;2022-08-03T13:32:02;40.30;39.20
21184;DHT22;18176;49.502;11.754;2022-08-03T13:36:00;38.40;41.40
21184;DHT22;18176;49.502;11.754;2022-08-03T13:39:57;37.60;41.60
21184;DHT22;18176;49.502;11.754;2022-08-03T13:43:58;36.60;42.20
21184;DHT22;18176;49.502;11.754;2022-08-03T13:48:15;35.70;43.20
21184;DHT22;18176;49.502;11.754;2022-08-03T13:52:33;35.70;45.10
21184;DHT22;18176;49.502;11.754;2022-08-03T13:56:31;36.60;42.10
21184;DHT22;18176;49.502;11.754;2022-08-03T14:00:29;37.80;40.40
21184;DHT22;18176;49.502;11.754;2022-08-03T14:04:26;38.60;39.70
21184;DHT22;18176;49.502;11.754;2022-08-03T14:08:23;39.10;38.80
21184;DHT22;18176;49.502;11.754;2022-08-03T14:12:20;39.30;37.90
21184;DHT22;18176;49.502;11.754;2022-08-03T14:16:17;39.60;38.60
21184;DHT22;18176;49.502;11.754;2022-08-03T14:20:16;40.50;37.30
21184;DHT22;18176;49.502;11.754;2022-08-03T14:24:33;40.40;37.10
21184;DHT22;18176;49.502;11.754;2022-08-03T14:28:30;40.60;37.50
21184;DHT22;18176;49.502;11.754;2022-08-03T14:32:27;41.50;35.90
21184;DHT22;18176;49.502;11.754;2022-08-03T14:36:26;40.30;36.50
21184;DHT22;18176;49.502;11.754;2022-08-03T14:40:23;38.70;38.00
21184;DHT22;18176;49.502;11.754;2022-08-03T14:44:20;38.80;39.70
21184;DHT22;18176;49.502;11.754;2022-08-03T14:48:19;38.40;38.90
21184;DHT22;18176;49.502;11.754;2022-08-03T14:52:37;39.30;38.40
21184;DHT22;18176;49.502;11.754;2022-08-03T14:56:36;40.50;37.70
21184;DHT22;18176;49.502;11.754;2022-08-03T15:00:34;40.30;37.60
21184;DHT22;18176;49.502;11.754;2022-08-03T15:04:31;40.90;36.60
21184;DHT22;18176;49.502;11.754;2022-08-03T15:08:28;41.90;36.70
21184;DHT22;18176;49.502;11.754;2022-08-03T15:12:25;42.60;35.10
21184;DHT22;18176;49.502;11.754;2022-08-03T15:16:22;41.70;35.20
21184;DHT22;18176;49.502;11.754;2022-08-03T15:20:25;39.90;36.80
21184;DHT22;18176;49.502;11.754;2022-08-03T15:24:40;38.50;38.10
21184;DHT22;18176;49.502;11.754;2022-08-03T15:28:37;37.60;39.40
21184;DHT22;18176;49.502;11.754;2022-08-03T15:32:34;37.60;39.80
21184;DHT22;18176;49.502;11.754;2022-08-03T15:36:31;37.10;40.00
21184;DHT22;18176;49.502;11.754;2022-08-03T15:40:28;36.70;40.60
21184;DHT22;18176;49.502;11.754;2022-08-03T15:44:25;37.70;41.60
21184;DHT22;18176;49.502;11.754;2022-08-03T15:48:22;38.00;41.50
21184;DHT22;18176;49.502;11.754;2022-08-03T15:52:22;38.10;39.40
21184;DHT22;18176;49.502;11.754;2022-08-03T15:56:19;38.70;38.10
21184;DHT22;18176;49.502;11.754;2022-08-03T16:00:16;40.00;37.30
21184;DHT22;18176;49.502;11.754;2022-08-03T16:04:14;39.20;37.10
21184;DHT22;18176;49.502;11.754;2022-08-03T16:08:11;39.00;37.60
21184;DHT22;18176;49.502;11.754;2022-08-03T16:12:10;38.20;38.50
21184;DHT22;18176;49.502;11.754;2022-08-03T16:16:12;38.50;38.20
21184;DHT22;18176;49.502;11.754;2022-08-03T16:20:10;39.80;37.40
21184;DHT22;18176;49.502;11.754;2022-08-03T16:24:28;40.10;36.10
21184;DHT22;18176;49.502;11.754;2022-08-03T16:28:25;39.80;36.50
21184;DHT22;18176;49.502;11.754;2022-08-03T16:32:22;39.50;36.60
21184;DHT22;18176;49.502;11.754;2022-08-03T16:36:19;39.50;37.20
21184;DHT22;18176;49.502;11.754;2022-08-03T16:40:16;38.70;37.20
21184;DHT22;18176;49.502;11.754;2022-08-03T16:44:15;37.60;38.20
21184;DHT22;18176;49.502;11.754;2022-08-03T16:48:15;37.50;38.50
21184;DHT22;18176;49.502;11.754;2022-08-03T16:52:13;37.60;38.60
21184;DHT22;18176;49.502;11.754;2022-08-03T16:56:13;38.10;38.20
21184;DHT22;18176;49.502;11.754;2022-08-03T17:00:11;37.70;37.90
21184;DHT22;18176;49.502;11.754;2022-08-03T17:04:29;37.60;38.50
21184;DHT22;18176;49.502;11.754;2022-08-03T17:08:27;37.00;38.70
21184;DHT22;18176;49.502;11.754;2022-08-03T17:12:25;37.30;39.30
21184;DHT22;18176;49.502;11.754;2022-08-03T17:16:26;38.00;38.40
21184;DHT22;18176;49.502;11.754;2022-08-03T17:20:24;38.40;38.10
21184;DHT22;18176;49.502;11.754;2022-08-03T17:24:34;38.00;37.80
21184;DHT22;18176;49.502;11.754;2022-08-03T17:28:40;37.70;38.40
21184;DHT22;18176;49.502;11.754;2022-08-03T17:32:47;37.30;38.60
21184;DHT22;18176;49.502;11.754;2022-08-03T17:36:53;36.90;39.30
21184;DHT22;18176;49.502;11.754;2022-08-03T17:41:03;36.20;40.20
21184;DHT22;18176;49.502;11.754;2022-08-03T17:45:07;35.70;40.80
21184;DHT22;18176;49.502;11.754;2022-08-03T17:49:11;35.20;41.20
21184;DHT22;18176;49.502;11.754;2022-08-03T17:53:32;34.90;42.30
21184;DHT22;18176;49.502;11.754;2022-08-03T17:57:50;34.60;42.80
21184;DHT22;18176;49.502;11.754;2022-08-03T18:02:26;34.30;43.50
21184;DHT22;18176;49.502;11.754;2022-08-03T18:07:08;33.50;43.80
21184;DHT22;18176;49.502;11.754;2022-08-03T18:11:28;32.90;44.70
21184;DHT22;18176;49.502;11.754;2022-08-03T18:15:45;32.70;45.00
21184;DHT22;18176;49.502;11.754;2022-08-03T18:19:48;32.70;47.90
21184;DHT22;18176;49.502;11.754;2022-08-03T18:24:05;32.40;48.00
21184;DHT22;18176;49.502;11.754;2022-08-03T18:28:05;31.90;49.40
21184;DHT22;18176;49.502;11.754;2022-08-03T18:32:07;31.60;50.40
21184;DHT22;18176;49.502;11.754;2022-08-03T18:36:14;31.20;51.80
21184;DHT22;18176;49.502;11.754;2022-08-03T18:40:25;30.80;52.00
21184;DHT22;18176;49.502;11.754;2022-08-03T18:44:26;30.40;53.20
21184;DHT22;18176;49.502;11.754;2022-08-03T18:53:18;29.60;54.80
21184;DHT22;18176;49.502;11.754;2022-08-03T18:58:04;29.30;55.50
21184;DHT22;18176;49.502;11.754;2022-08-03T19:02:35;28.90;57.00
21184;DHT22;18176;49.502;11.754;2022-08-03T19:06:46;28.70;56.80
21184;DHT22;18176;49.502;11.754;2022-08-03T19:10:47;28.40;57.10
21184;DHT22;18176;49.502;11.754;2022-08-03T19:14:59;28.20;57.60
21184;DHT22;18176;49.502;11.754;2022-08-03T19:19:01;28.00;58.90
21184;DHT22;18176;49.502;11.754;2022-08-03T19:22:59;27.80;58.20
21184;DHT22;18176;49.502;11.754;2022-08-03T19:26:58;27.70;58.50
21184;DHT22;18176;49.502;11.754;2022-08-03T19:30:59;27.50;58.30
21184;DHT22;18176;49.502;11.754;2022-08-03T19:35:04;27.30;58.80
21184;DHT22;18176;49.502;11.754;2022-08-03T19:39:09;27.20;59.70
21184;DHT22;18176;49.502;11.754;2022-08-03T19:43:15;27.00;60.20
21184;DHT22;18176;49.502;11.754;2022-08-03T19:47:26;26.80;60.60
21184;DHT22;18176;49.502;11.754;2022-08-03T19:51:30;26.60;60.50
21184;DHT22;18176;49.502;11.754;2022-08-03T19:55:53;26.40;61.80
21184;DHT22;18176;49.502;11.754;2022-08-03T19:59:53;26.30;63.40
21184;DHT22;18176;49.502;11.754;2022-08-03T20:03:51;26.20;64.00
21184;DHT22;18176;49.502;11.754;2022-08-03T20:07:49;26.00;64.90
21184;DHT22;18176;49.502;11.754;2022-08-03T20:11:47;25.90;65.30
21184;DHT22;18176;49.502;11.754;2022-08-03T20:15:44;25.80;66.80
21184;DHT22;18176;49.502;11.754;2022-08-03T20:19:42;25.60;65.50
21184;DHT22;18176;49.502;11.754;2022-08-03T20:23:41;25.50;67.30
21184;DHT22;18176;49.502;11.754;2022-08-03T20:32:27;25.30;68.60
21184;DHT22;18176;49.502;11.754;2022-08-03T20:36:24;25.20;70.10
21184;DHT22;18176;49.502;11.754;2022-08-03T20:40:22;25.10;70.40
21184;DHT22;18176;49.502;11.754;2022-08-03T20:44:23;25.00;70.70
21184;DHT22;18176;49.502;11.754;2022-08-03T20:48:21;24.90;71.40
21184;DHT22;18176;49.502;11.754;2022-08-03T20:52:21;24.80;72.80
21184;DHT22;18176;49.502;11.754;2022-08-03T20:56:21;24.80;72.70
21184;DHT22;18176;49.502;11.754;2022-08-03T21:00:21;24.60;73.40
21184;DHT22;18176;49.502;11.754;2022-08-03T21:04:23;24.50;74.20
21184;DHT22;18176;49.502;11.754;2022-08-03T21:08:21;24.30;74.20
21184;DHT22;18176;49.502;11.754;2022-08-03T21:12:44;24.20;75.70
21184;DHT22;18176;49.502;11.754;2022-08-03T21:16:49;24.10;76.70
21184;DHT22;18176;49.502;11.754;2022-08-03T21:20:48;24.00;78.20
21184;DHT22;18176;49.502;11.754;2022-08-03T21:24:47;23.90;79.60
21184;DHT22;18176;49.502;11.754;2022-08-03T21:28:53;23.80;80.50
21184;DHT22;18176;49.502;11.754;2022-08-03T21:32:53;23.70;80.70
21184;DHT22;18176;49.502;11.754;2022-08-03T21:36:52;23.60;81.30
21184;DHT22;18176;49.502;11.754;2022-08-03T21:40:50;23.40;83.00
21184;DHT22;18176;49.502;11.754;2022-08-03T21:44:51;23.40;83.50
21184;DHT22;18176;49.502;11.754;2022-08-03T21:48:58;23.20;84.90
21184;DHT22;18176;49.502;11.754;2022-08-03T21:53:17;23.10;85.40
21184;DHT22;18176;49.502;11.754;2022-08-03T21:57:21;23.00;85.70
21184;DHT22;18176;49.502;11.754;2022-08-03T22:01:23;22.90;86.40
21184;DHT22;18176;49.502;11.754;2022-08-03T22:05:23;22.70;87.20
21184;DHT22;18176;49.502;11.754;2022-08-03T22:09:39;22.70;87.50
21184;DHT22;18176;49.502;11.754;2022-08-03T22:13:48;22.50;88.70
21184;DHT22;18176;49.502;11.754;2022-08-03T22:17:45;22.50;89.90
21184;DHT22;18176;49.502;11.754;2022-08-03T22:21:52;22.40;90.30
21184;DHT22;18176;49.502;11.754;2022-08-03T22:25:51;22.40;90.70
21184;DHT22;18176;49.502;11.754;2022-08-03T22:29:50;22.30;91.20
21184;DHT22;18176;49.502;11.754;2022-08-03T22:33:52;22.20;91.20
21184;DHT22;18176;49.502;11.754;2022-08-03T22:37:53;22.10;91.00
21184;DHT22;18176;49.502;11.754;2022-08-03T22:41:53;22.00;91.40
21184;DHT22;18176;49.502;11.754;2022-08-03T22:45:53;21.90;91.60
21184;DHT22;18176;49.502;11.754;2022-08-03T22:50:11;21.80;91.70
21184;DHT22;18176;49.502;11.754;2022-08-03T22:54:31;21.80;91.80
21184;DHT22;18176;49.502;11.754;2022-08-03T22:58:28;21.70;92.30
21184;DHT22;18176;49.502;11.754;2022-08-03T23:02:27;21.60;92.30
21184;DHT22;18176;49.502;11.754;2022-08-03T23:06:26;21.50;92.40
21184;DHT22;18176;49.502;11.754;2022-08-03T23:10:33;21.40;92.90
21184;DHT22;18176;49.502;11.754;2022-08-03T23:14:35;21.30;93.80
21184;DHT22;18176;49.502;11.754;2022-08-03T23:18:36;21.30;94.10
21184;DHT22;18176;49.502;11.754;2022-08-03T23:22:38;21.30;94.10
21184;DHT22;18176;49.502;11.754;2022-08-03T23:26:38;21.20;94.50
21184;DHT22;18176;49.502;11.754;2022-08-03T23:30:37;21.20;95.00
21184;DHT22;18176;49.502;11.754;2022-08-03T23:34:37;21.00;95.20
21184;DHT22;18176;49.502;11.754;2022-08-03T23:38:54;21.00;95.40
21184;DHT22;18176;49.502;11.754;2022-08-03T23:42:51;20.90;95.80
21184;DHT22;18176;49.502;11.754;2022-08-03T23:46:49;20.80;96.00
21184;DHT22;18176;49.502;11.754;2022-08-03T23:50:47;20.70;95.90
